sensor_id;sensor_type;location;lat;lon;timestamp;P1;durP1;ratioP1;P2;durP2;ratioP2
20480;SDS011;10399;50.754;3.366;2023-05-10T00:00:56;21.13;;;9.50;;
20480;SDS011;10399;50.754;3.366;2023-05-10T00:03:24;23.42;;;10.48;;
20480;SDS011;10399;50.754;3.366;2023-05-10T00:05:51;23.20;;;11.05;;
20480;SDS011;10399;50.754;3.366;2023-05-10T00:08:18;24.80;;;10.68;;
20480;SDS011;10399;50.754;3.366;2023-05-10T00:10:46;20.77;;;10.35;;
20480;SDS011;10399;50.754;3.366;2023-05-10T00:13:13;23.38;;;10.65;;
20480;SDS011;10399;50.754;3.366;2023-05-10T00:15:40;23.33;;;10.60;;
20480;SDS011;10399;50.754;3.366;2023-05-10T00:18:07;19.48;;;10.50;;
20480;SDS011;10399;50.754;3.366;2023-05-10T00:20:34;20.38;;;9.73;;
20480;SDS011;10399;50.754;3.366;2023-05-10T00:23:01;19.02;;;9.73;;
20480;SDS011;10399;50.754;3.366;2023-05-10T00:25:29;22.80;;;11.18;;
20480;SDS011;10399;50.754;3.366;2023-05-10T00:27:55;21.30;;;10.43;;
20480;SDS011;10399;50.754;3.366;2023-05-10T00:30:23;21.02;;;10.05;;
20480;SDS011;10399;50.754;3.366;2023-05-10T00:32:51;22.02;;;10.27;;
20480;SDS011;10399;50.754;3.366;2023-05-10T00:35:18;16.95;;;9.05;;
20480;SDS011;10399;50.754;3.366;2023-05-10T00:37:45;20.20;;;10.10;;
20480;SDS011;10399;50.754;3.366;2023-05-10T00:40:12;22.90;;;10.80;;
20480;SDS011;10399;50.754;3.366;2023-05-10T00:42:40;18.95;;;9.40;;
20480;SDS011;10399;50.754;3.366;2023-05-10T00:45:07;19.80;;;9.48;;
20480;SDS011;10399;50.754;3.366;2023-05-10T00:47:35;20.33;;;10.07;;
20480;SDS011;10399;50.754;3.366;2023-05-10T00:50:02;19.67;;;9.93;;
20480;SDS011;10399;50.754;3.366;2023-05-10T00:52:30;18.13;;;10.73;;
20480;SDS011;10399;50.754;3.366;2023-05-10T00:54:58;16.67;;;9.25;;
20480;SDS011;10399;50.754;3.366;2023-05-10T00:57:25;23.58;;;10.05;;
20480;SDS011;10399;50.754;3.366;2023-05-10T00:59:53;19.85;;;11.30;;
20480;SDS011;10399;50.754;3.366;2023-05-10T01:02:20;28.42;;;12.30;;
20480;SDS011;10399;50.754;3.366;2023-05-10T01:04:47;20.90;;;11.80;;
20480;SDS011;10399;50.754;3.366;2023-05-10T01:07:16;21.65;;;11.73;;
20480;SDS011;10399;50.754;3.366;2023-05-10T01:09:43;21.73;;;12.35;;
20480;SDS011;10399;50.754;3.366;2023-05-10T01:12:10;24.08;;;13.07;;
20480;SDS011;10399;50.754;3.366;2023-05-10T01:14:37;23.33;;;13.30;;
20480;SDS011;10399;50.754;3.366;2023-05-10T01:17:05;25.23;;;13.93;;
20480;SDS011;10399;50.754;3.366;2023-05-10T01:19:34;23.70;;;12.68;;
20480;SDS011;10399;50.754;3.366;2023-05-10T01:32:50;27.20;;;14.20;;
20480;SDS011;10399;50.754;3.366;2023-05-10T01:35:55;28.42;;;13.88;;
20480;SDS011;10399;50.754;3.366;2023-05-10T01:38:50;28.58;;;13.65;;
20480;SDS011;10399;50.754;3.366;2023-05-10T01:41:36;26.88;;;14.15;;
20480;SDS011;10399;50.754;3.366;2023-05-10T01:44:15;28.17;;;14.07;;
20480;SDS011;10399;50.754;3.366;2023-05-10T01:46:54;30.02;;;14.18;;
20480;SDS011;10399;50.754;3.366;2023-05-10T01:49:30;30.17;;;14.07;;
20480;SDS011;10399;50.754;3.366;2023-05-10T01:52:06;33.40;;;14.60;;
20480;SDS011;10399;50.754;3.366;2023-05-10T01:54:38;34.17;;;14.77;;
20480;SDS011;10399;50.754;3.366;2023-05-10T01:57:10;30.85;;;14.52;;
20480;SDS011;10399;50.754;3.366;2023-05-10T01:59:40;26.83;;;14.07;;
20480;SDS011;10399;50.754;3.366;2023-05-10T02:02:12;26.75;;;13.65;;
20480;SDS011;10399;50.754;3.366;2023-05-10T02:04:41;26.00;;;14.32;;
20480;SDS011;10399;50.754;3.366;2023-05-10T02:07:09;30.33;;;14.90;;
20480;SDS011;10399;50.754;3.366;2023-05-10T02:09:38;25.38;;;14.57;;
20480;SDS011;10399;50.754;3.366;2023-05-10T02:12:06;24.98;;;13.45;;
20480;SDS011;10399;50.754;3.366;2023-05-10T02:14:35;23.48;;;12.50;;
20480;SDS011;10399;50.754;3.366;2023-05-10T02:17:04;29.17;;;13.00;;
20480;SDS011;10399;50.754;3.366;2023-05-10T02:19:32;24.98;;;12.73;;
20480;SDS011;10399;50.754;3.366;2023-05-10T02:22:00;33.60;;;13.50;;
20480;SDS011;10399;50.754;3.366;2023-05-10T02:24:29;32.63;;;12.98;;
20480;SDS011;10399;50.754;3.366;2023-05-10T02:26:58;29.13;;;12.98;;
20480;SDS011;10399;50.754;3.366;2023-05-10T02:29:26;33.47;;;12.80;;
20480;SDS011;10399;50.754;3.366;2023-05-10T02:31:56;36.97;;;13.18;;
20480;SDS011;10399;50.754;3.366;2023-05-10T02:34:27;28.35;;;11.35;;
20480;SDS011;10399;50.754;3.366;2023-05-10T02:36:56;32.78;;;11.65;;
20480;SDS011;10399;50.754;3.366;2023-05-10T02:39:25;32.05;;;10.68;;
20480;SDS011;10399;50.754;3.366;2023-05-10T02:41:54;34.15;;;10.98;;
20480;SDS011;10399;50.754;3.366;2023-05-10T02:44:23;34.58;;;11.23;;
20480;SDS011;10399;50.754;3.366;2023-05-10T02:46:55;34.80;;;10.05;;
20480;SDS011;10399;50.754;3.366;2023-05-10T02:49:23;37.28;;;10.68;;
20480;SDS011;10399;50.754;3.366;2023-05-10T02:51:55;21.73;;;9.70;;
20480;SDS011;10399;50.754;3.366;2023-05-10T02:54:27;36.60;;;10.88;;
20480;SDS011;10399;50.754;3.366;2023-05-10T02:56:58;34.10;;;10.63;;
20480;SDS011;10399;50.754;3.366;2023-05-10T02:59:29;26.20;;;10.18;;
20480;SDS011;10399;50.754;3.366;2023-05-10T03:01:56;36.22;;;9.90;;
20480;SDS011;10399;50.754;3.366;2023-05-10T03:04:22;34.55;;;9.63;;
20480;SDS011;10399;50.754;3.366;2023-05-10T03:06:50;26.92;;;8.65;;
20480;SDS011;10399;50.754;3.366;2023-05-10T03:09:17;30.08;;;8.20;;
20480;SDS011;10399;50.754;3.366;2023-05-10T03:14:45;28.92;;;8.32;;
20480;SDS011;10399;50.754;3.366;2023-05-10T03:17:30;31.77;;;8.85;;
20480;SDS011;10399;50.754;3.366;2023-05-10T03:20:16;25.80;;;8.25;;
20480;SDS011;10399;50.754;3.366;2023-05-10T03:23:00;23.38;;;7.75;;
20480;SDS011;10399;50.754;3.366;2023-05-10T03:25:35;24.30;;;7.68;;
20480;SDS011;10399;50.754;3.366;2023-05-10T03:28:03;26.70;;;7.82;;
20480;SDS011;10399;50.754;3.366;2023-05-10T03:30:32;30.42;;;8.32;;
20480;SDS011;10399;50.754;3.366;2023-05-10T03:33:05;23.88;;;7.22;;
20480;SDS011;10399;50.754;3.366;2023-05-10T03:35:33;25.45;;;7.53;;
20480;SDS011;10399;50.754;3.366;2023-05-10T03:38:00;22.88;;;7.60;;
20480;SDS011;10399;50.754;3.366;2023-05-10T03:40:27;26.35;;;7.30;;
20480;SDS011;10399;50.754;3.366;2023-05-10T03:43:00;24.15;;;8.15;;
20480;SDS011;10399;50.754;3.366;2023-05-10T03:45:27;21.50;;;6.70;;
20480;SDS011;10399;50.754;3.366;2023-05-10T03:47:55;21.35;;;7.53;;
20480;SDS011;10399;50.754;3.366;2023-05-10T03:50:22;22.63;;;7.78;;
20480;SDS011;10399;50.754;3.366;2023-05-10T03:52:50;19.52;;;7.68;;
20480;SDS011;10399;50.754;3.366;2023-05-10T03:55:19;18.10;;;7.82;;
20480;SDS011;10399;50.754;3.366;2023-05-10T03:57:47;21.35;;;7.30;;
20480;SDS011;10399;50.754;3.366;2023-05-10T04:00:15;20.88;;;7.10;;
20480;SDS011;10399;50.754;3.366;2023-05-10T04:02:44;22.58;;;7.38;;
20480;SDS011;10399;50.754;3.366;2023-05-10T04:05:11;19.73;;;8.38;;
20480;SDS011;10399;50.754;3.366;2023-05-10T04:07:39;20.70;;;7.82;;
20480;SDS011;10399;50.754;3.366;2023-05-10T04:10:06;20.38;;;8.30;;
20480;SDS011;10399;50.754;3.366;2023-05-10T04:12:34;20.98;;;7.63;;
20480;SDS011;10399;50.754;3.366;2023-05-10T04:15:01;21.67;;;8.20;;
20480;SDS011;10399;50.754;3.366;2023-05-10T04:17:29;20.20;;;8.95;;
20480;SDS011;10399;50.754;3.366;2023-05-10T04:19:57;24.60;;;9.07;;
20480;SDS011;10399;50.754;3.366;2023-05-10T04:22:24;23.80;;;9.43;;
20480;SDS011;10399;50.754;3.366;2023-05-10T04:24:51;16.00;;;7.57;;
20480;SDS011;10399;50.754;3.366;2023-05-10T04:27:18;22.60;;;8.57;;
20480;SDS011;10399;50.754;3.366;2023-05-10T04:29:45;19.58;;;9.38;;
20480;SDS011;10399;50.754;3.366;2023-05-10T04:32:13;19.77;;;9.02;;
20480;SDS011;10399;50.754;3.366;2023-05-10T04:34:39;19.92;;;8.65;;
20480;SDS011;10399;50.754;3.366;2023-05-10T04:37:06;22.92;;;8.70;;
20480;SDS011;10399;50.754;3.366;2023-05-10T04:39:34;18.45;;;8.25;;
20480;SDS011;10399;50.754;3.366;2023-05-10T04:42:02;21.50;;;8.07;;
20480;SDS011;10399;50.754;3.366;2023-05-10T04:44:31;19.92;;;8.05;;
20480;SDS011;10399;50.754;3.366;2023-05-10T04:46:59;19.80;;;8.70;;
20480;SDS011;10399;50.754;3.366;2023-05-10T04:49:26;17.83;;;8.75;;
20480;SDS011;10399;50.754;3.366;2023-05-10T04:51:53;25.50;;;9.40;;
20480;SDS011;10399;50.754;3.366;2023-05-10T04:54:21;23.55;;;8.35;;
20480;SDS011;10399;50.754;3.366;2023-05-10T04:56:48;21.20;;;9.05;;
20480;SDS011;10399;50.754;3.366;2023-05-10T04:59:15;27.33;;;9.63;;
20480;SDS011;10399;50.754;3.366;2023-05-10T05:01:44;20.35;;;8.65;;
20480;SDS011;10399;50.754;3.366;2023-05-10T05:04:11;21.80;;;10.10;;
20480;SDS011;10399;50.754;3.366;2023-05-10T05:06:38;27.90;;;10.35;;
20480;SDS011;10399;50.754;3.366;2023-05-10T05:09:05;26.70;;;11.40;;
20480;SDS011;10399;50.754;3.366;2023-05-10T05:11:32;25.52;;;9.85;;
20480;SDS011;10399;50.754;3.366;2023-05-10T05:13:59;19.67;;;9.15;;
20480;SDS011;10399;50.754;3.366;2023-05-10T05:16:26;23.42;;;9.55;;
20480;SDS011;10399;50.754;3.366;2023-05-10T05:18:53;24.85;;;9.48;;
20480;SDS011;10399;50.754;3.366;2023-05-10T05:21:20;31.92;;;9.43;;
20480;SDS011;10399;50.754;3.366;2023-05-10T05:23:48;23.25;;;9.95;;
20480;SDS011;10399;50.754;3.366;2023-05-10T05:26:15;28.88;;;9.73;;
20480;SDS011;10399;50.754;3.366;2023-05-10T05:28:42;30.98;;;10.90;;
20480;SDS011;10399;50.754;3.366;2023-05-10T05:31:09;22.92;;;9.88;;
20480;SDS011;10399;50.754;3.366;2023-05-10T05:33:36;25.70;;;10.40;;
20480;SDS011;10399;50.754;3.366;2023-05-10T05:36:04;26.85;;;10.55;;
20480;SDS011;10399;50.754;3.366;2023-05-10T05:38:32;28.88;;;11.23;;
20480;SDS011;10399;50.754;3.366;2023-05-10T05:40:59;31.23;;;10.40;;
20480;SDS011;10399;50.754;3.366;2023-05-10T05:43:26;26.58;;;10.65;;
20480;SDS011;10399;50.754;3.366;2023-05-10T05:45:54;27.02;;;10.77;;
20480;SDS011;10399;50.754;3.366;2023-05-10T05:48:22;28.85;;;10.70;;
20480;SDS011;10399;50.754;3.366;2023-05-10T05:50:49;27.23;;;11.25;;
20480;SDS011;10399;50.754;3.366;2023-05-10T05:53:16;25.13;;;12.45;;
20480;SDS011;10399;50.754;3.366;2023-05-10T05:55:55;26.67;;;10.98;;
20480;SDS011;10399;50.754;3.366;2023-05-10T05:58:27;35.15;;;11.30;;
20480;SDS011;10399;50.754;3.366;2023-05-10T06:00:54;29.90;;;11.85;;
20480;SDS011;10399;50.754;3.366;2023-05-10T06:03:21;31.33;;;11.45;;
20480;SDS011;10399;50.754;3.366;2023-05-10T06:05:48;21.92;;;10.32;;
20480;SDS011;10399;50.754;3.366;2023-05-10T06:08:15;31.42;;;11.77;;
20480;SDS011;10399;50.754;3.366;2023-05-10T06:10:42;30.00;;;11.20;;
20480;SDS011;10399;50.754;3.366;2023-05-10T06:13:10;26.42;;;10.68;;
20480;SDS011;10399;50.754;3.366;2023-05-10T06:15:37;23.45;;;10.88;;
20480;SDS011;10399;50.754;3.366;2023-05-10T06:18:04;32.95;;;12.02;;
20480;SDS011;10399;50.754;3.366;2023-05-10T06:20:33;30.10;;;12.27;;
20480;SDS011;10399;50.754;3.366;2023-05-10T06:23:00;28.42;;;11.57;;
20480;SDS011;10399;50.754;3.366;2023-05-10T06:25:27;28.63;;;12.57;;
20480;SDS011;10399;50.754;3.366;2023-05-10T06:27:54;34.20;;;13.15;;
20480;SDS011;10399;50.754;3.366;2023-05-10T06:30:26;29.30;;;12.40;;
20480;SDS011;10399;50.754;3.366;2023-05-10T06:32:55;36.28;;;12.23;;
20480;SDS011;10399;50.754;3.366;2023-05-10T06:35:23;32.08;;;12.85;;
20480;SDS011;10399;50.754;3.366;2023-05-10T06:37:50;30.42;;;12.40;;
20480;SDS011;10399;50.754;3.366;2023-05-10T06:40:17;34.42;;;12.13;;
20480;SDS011;10399;50.754;3.366;2023-05-10T06:42:45;37.40;;;12.32;;
20480;SDS011;10399;50.754;3.366;2023-05-10T06:45:12;30.17;;;14.25;;
20480;SDS011;10399;50.754;3.366;2023-05-10T06:47:41;33.38;;;14.15;;
20480;SDS011;10399;50.754;3.366;2023-05-10T06:50:08;31.42;;;12.07;;
20480;SDS011;10399;50.754;3.366;2023-05-10T06:52:37;34.50;;;12.70;;
20480;SDS011;10399;50.754;3.366;2023-05-10T06:55:05;29.67;;;11.35;;
20480;SDS011;10399;50.754;3.366;2023-05-10T06:57:33;30.48;;;11.07;;
20480;SDS011;10399;50.754;3.366;2023-05-10T07:00:00;29.00;;;11.68;;
20480;SDS011;10399;50.754;3.366;2023-05-10T07:02:31;28.15;;;10.65;;
20480;SDS011;10399;50.754;3.366;2023-05-10T07:04:58;28.17;;;11.48;;
20480;SDS011;10399;50.754;3.366;2023-05-10T07:07:28;35.53;;;12.90;;
20480;SDS011;10399;50.754;3.366;2023-05-10T07:09:55;29.75;;;12.90;;
20480;SDS011;10399;50.754;3.366;2023-05-10T07:12:24;30.15;;;13.13;;
20480;SDS011;10399;50.754;3.366;2023-05-10T07:14:51;29.30;;;13.05;;
20480;SDS011;10399;50.754;3.366;2023-05-10T07:17:18;30.90;;;11.63;;
20480;SDS011;10399;50.754;3.366;2023-05-10T07:19:46;27.27;;;12.27;;
20480;SDS011;10399;50.754;3.366;2023-05-10T07:22:13;30.45;;;12.82;;
20480;SDS011;10399;50.754;3.366;2023-05-10T07:24:40;30.60;;;11.75;;
20480;SDS011;10399;50.754;3.366;2023-05-10T07:27:08;28.80;;;10.13;;
20480;SDS011;10399;50.754;3.366;2023-05-10T07:29:35;26.05;;;10.90;;
20480;SDS011;10399;50.754;3.366;2023-05-10T07:32:04;28.88;;;11.32;;
20480;SDS011;10399;50.754;3.366;2023-05-10T07:34:32;28.95;;;11.20;;
20480;SDS011;10399;50.754;3.366;2023-05-10T07:36:59;38.20;;;11.90;;
20480;SDS011;10399;50.754;3.366;2023-05-10T07:39:27;29.58;;;10.23;;
20480;SDS011;10399;50.754;3.366;2023-05-10T07:41:54;26.60;;;11.07;;
20480;SDS011;10399;50.754;3.366;2023-05-10T07:44:21;27.20;;;11.18;;
20480;SDS011;10399;50.754;3.366;2023-05-10T07:46:49;28.20;;;11.00;;
20480;SDS011;10399;50.754;3.366;2023-05-10T07:49:16;26.88;;;11.32;;
20480;SDS011;10399;50.754;3.366;2023-05-10T07:51:43;25.20;;;12.02;;
20480;SDS011;10399;50.754;3.366;2023-05-10T07:54:10;22.33;;;10.70;;
20480;SDS011;10399;50.754;3.366;2023-05-10T07:56:37;24.55;;;10.82;;
20480;SDS011;10399;50.754;3.366;2023-05-10T07:59:06;24.58;;;10.98;;
20480;SDS011;10399;50.754;3.366;2023-05-10T08:01:35;29.27;;;11.20;;
20480;SDS011;10399;50.754;3.366;2023-05-10T08:04:03;21.40;;;10.95;;
20480;SDS011;10399;50.754;3.366;2023-05-10T08:06:30;22.92;;;10.82;;
20480;SDS011;10399;50.754;3.366;2023-05-10T08:08:57;32.03;;;11.77;;
20480;SDS011;10399;50.754;3.366;2023-05-10T08:11:24;31.45;;;10.50;;
20480;SDS011;10399;50.754;3.366;2023-05-10T08:13:51;29.33;;;11.35;;
20480;SDS011;10399;50.754;3.366;2023-05-10T08:16:19;28.23;;;11.52;;
20480;SDS011;10399;50.754;3.366;2023-05-10T08:18:46;27.30;;;11.30;;
20480;SDS011;10399;50.754;3.366;2023-05-10T08:21:15;30.52;;;11.75;;
20480;SDS011;10399;50.754;3.366;2023-05-10T08:23:42;29.50;;;12.45;;
20480;SDS011;10399;50.754;3.366;2023-05-10T08:26:12;26.20;;;11.38;;
20480;SDS011;10399;50.754;3.366;2023-05-10T08:28:39;23.67;;;11.82;;
20480;SDS011;10399;50.754;3.366;2023-05-10T08:31:06;22.70;;;11.43;;
20480;SDS011;10399;50.754;3.366;2023-05-10T08:33:33;25.35;;;12.00;;
20480;SDS011;10399;50.754;3.366;2023-05-10T08:36:00;21.88;;;11.10;;
20480;SDS011;10399;50.754;3.366;2023-05-10T08:38:28;23.40;;;11.93;;
20480;SDS011;10399;50.754;3.366;2023-05-10T08:40:55;21.88;;;11.43;;
20480;SDS011;10399;50.754;3.366;2023-05-10T08:43:23;21.63;;;11.70;;
20480;SDS011;10399;50.754;3.366;2023-05-10T08:45:54;24.00;;;10.93;;
20480;SDS011;10399;50.754;3.366;2023-05-10T08:48:23;21.17;;;11.38;;
20480;SDS011;10399;50.754;3.366;2023-05-10T08:50:52;22.52;;;11.07;;
20480;SDS011;10399;50.754;3.366;2023-05-10T08:53:22;21.83;;;11.68;;
20480;SDS011;10399;50.754;3.366;2023-05-10T08:55:52;24.80;;;12.07;;
20480;SDS011;10399;50.754;3.366;2023-05-10T08:58:20;21.65;;;10.88;;
20480;SDS011;10399;50.754;3.366;2023-05-10T09:00:48;25.38;;;10.70;;
20480;SDS011;10399;50.754;3.366;2023-05-10T09:03:17;24.73;;;10.65;;
20480;SDS011;10399;50.754;3.366;2023-05-10T09:05:45;23.10;;;10.38;;
20480;SDS011;10399;50.754;3.366;2023-05-10T09:08:12;27.15;;;11.13;;
20480;SDS011;10399;50.754;3.366;2023-05-10T09:10:45;25.48;;;10.57;;
20480;SDS011;10399;50.754;3.366;2023-05-10T09:13:14;26.10;;;10.88;;
20480;SDS011;10399;50.754;3.366;2023-05-10T09:15:43;25.15;;;11.07;;
20480;SDS011;10399;50.754;3.366;2023-05-10T09:18:11;20.45;;;10.98;;
20480;SDS011;10399;50.754;3.366;2023-05-10T09:20:40;20.27;;;10.68;;
20480;SDS011;10399;50.754;3.366;2023-05-10T09:23:07;19.23;;;9.88;;
20480;SDS011;10399;50.754;3.366;2023-05-10T09:25:35;21.98;;;10.90;;
20480;SDS011;10399;50.754;3.366;2023-05-10T09:28:03;19.55;;;10.70;;
20480;SDS011;10399;50.754;3.366;2023-05-10T09:30:34;17.40;;;10.30;;
20480;SDS011;10399;50.754;3.366;2023-05-10T09:33:02;18.05;;;10.82;;
20480;SDS011;10399;50.754;3.366;2023-05-10T09:35:30;19.95;;;10.73;;
20480;SDS011;10399;50.754;3.366;2023-05-10T09:37:59;21.50;;;10.65;;
20480;SDS011;10399;50.754;3.366;2023-05-10T09:40:30;17.58;;;10.40;;
20480;SDS011;10399;50.754;3.366;2023-05-10T09:43:02;19.30;;;11.00;;
20480;SDS011;10399;50.754;3.366;2023-05-10T09:45:34;18.55;;;10.70;;
20480;SDS011;10399;50.754;3.366;2023-05-10T09:48:09;25.40;;;12.10;;
20480;SDS011;10399;50.754;3.366;2023-05-10T09:50:36;24.45;;;11.48;;
20480;SDS011;10399;50.754;3.366;2023-05-10T09:53:03;20.08;;;11.57;;
20480;SDS011;10399;50.754;3.366;2023-05-10T09:55:43;25.92;;;12.38;;
20480;SDS011;10399;50.754;3.366;2023-05-10T09:58:12;23.05;;;12.65;;
20480;SDS011;10399;50.754;3.366;2023-05-10T10:00:41;24.60;;;12.45;;
20480;SDS011;10399;50.754;3.366;2023-05-10T10:03:14;22.48;;;12.40;;
20480;SDS011;10399;50.754;3.366;2023-05-10T10:05:43;25.77;;;13.52;;
20480;SDS011;10399;50.754;3.366;2023-05-10T10:08:10;25.02;;;13.25;;
20480;SDS011;10399;50.754;3.366;2023-05-10T10:10:39;24.95;;;13.43;;
20480;SDS011;10399;50.754;3.366;2023-05-10T10:13:07;22.70;;;11.43;;
20480;SDS011;10399;50.754;3.366;2023-05-10T10:15:34;21.65;;;11.45;;
20480;SDS011;10399;50.754;3.366;2023-05-10T10:18:02;22.48;;;11.95;;
20480;SDS011;10399;50.754;3.366;2023-05-10T10:20:30;19.50;;;11.52;;
20480;SDS011;10399;50.754;3.366;2023-05-10T10:22:58;19.58;;;11.05;;
20480;SDS011;10399;50.754;3.366;2023-05-10T10:25:25;20.20;;;11.00;;
20480;SDS011;10399;50.754;3.366;2023-05-10T10:30:28;23.52;;;10.60;;
20480;SDS011;10399;50.754;3.366;2023-05-10T10:35:54;22.80;;;11.85;;
20480;SDS011;10399;50.754;3.366;2023-05-10T10:38:24;21.63;;;11.00;;
20480;SDS011;10399;50.754;3.366;2023-05-10T10:41:10;22.23;;;10.25;;
20480;SDS011;10399;50.754;3.366;2023-05-10T10:55:04;20.08;;;10.63;;
20480;SDS011;10399;50.754;3.366;2023-05-10T11:00:31;18.13;;;10.23;;
20480;SDS011;10399;50.754;3.366;2023-05-10T11:03:04;16.40;;;9.60;;
20480;SDS011;10399;50.754;3.366;2023-05-10T11:13:27;18.02;;;9.73;;
20480;SDS011;10399;50.754;3.366;2023-05-10T11:15:55;19.83;;;9.55;;
20480;SDS011;10399;50.754;3.366;2023-05-10T11:18:26;20.60;;;10.02;;
20480;SDS011;10399;50.754;3.366;2023-05-10T11:20:57;20.60;;;9.68;;
20480;SDS011;10399;50.754;3.366;2023-05-10T11:23:29;18.30;;;10.13;;
20480;SDS011;10399;50.754;3.366;2023-05-10T11:25:58;21.95;;;9.85;;
20480;SDS011;10399;50.754;3.366;2023-05-10T11:28:27;19.83;;;10.52;;
20480;SDS011;10399;50.754;3.366;2023-05-10T11:30:54;19.02;;;10.35;;
20480;SDS011;10399;50.754;3.366;2023-05-10T11:33:22;19.00;;;10.52;;
20480;SDS011;10399;50.754;3.366;2023-05-10T11:35:49;20.27;;;10.52;;
20480;SDS011;10399;50.754;3.366;2023-05-10T11:38:17;20.25;;;11.40;;
20480;SDS011;10399;50.754;3.366;2023-05-10T11:40:44;20.42;;;11.70;;
20480;SDS011;10399;50.754;3.366;2023-05-10T11:43:11;22.15;;;11.52;;
20480;SDS011;10399;50.754;3.366;2023-05-10T11:45:39;24.05;;;10.93;;
20480;SDS011;10399;50.754;3.366;2023-05-10T11:48:07;19.55;;;11.98;;
20480;SDS011;10399;50.754;3.366;2023-05-10T11:50:35;23.48;;;11.40;;
20480;SDS011;10399;50.754;3.366;2023-05-10T11:53:02;24.00;;;11.18;;
20480;SDS011;10399;50.754;3.366;2023-05-10T11:55:29;19.17;;;11.40;;
20480;SDS011;10399;50.754;3.366;2023-05-10T11:58:01;19.27;;;11.35;;
20480;SDS011;10399;50.754;3.366;2023-05-10T12:00:28;21.73;;;10.15;;
20480;SDS011;10399;50.754;3.366;2023-05-10T12:02:56;21.50;;;11.35;;
20480;SDS011;10399;50.754;3.366;2023-05-10T12:05:24;19.08;;;10.88;;
20480;SDS011;10399;50.754;3.366;2023-05-10T12:07:52;19.25;;;10.40;;
20480;SDS011;10399;50.754;3.366;2023-05-10T12:10:25;20.25;;;11.23;;
20480;SDS011;10399;50.754;3.366;2023-05-10T12:12:53;17.10;;;10.43;;
20480;SDS011;10399;50.754;3.366;2023-05-10T12:15:21;17.42;;;10.38;;
20480;SDS011;10399;50.754;3.366;2023-05-10T12:17:49;23.35;;;11.05;;
20480;SDS011;10399;50.754;3.366;2023-05-10T12:20:21;24.55;;;11.90;;
20480;SDS011;10399;50.754;3.366;2023-05-10T12:22:50;26.63;;;11.43;;
20480;SDS011;10399;50.754;3.366;2023-05-10T12:25:20;23.48;;;11.45;;
20480;SDS011;10399;50.754;3.366;2023-05-10T12:27:53;19.45;;;10.55;;
20480;SDS011;10399;50.754;3.366;2023-05-10T12:30:26;22.77;;;11.15;;
20480;SDS011;10399;50.754;3.366;2023-05-10T12:32:59;16.67;;;8.48;;
20480;SDS011;10399;50.754;3.366;2023-05-10T12:35:45;13.18;;;8.52;;
20480;SDS011;10399;50.754;3.366;2023-05-10T12:40:53;15.60;;;8.85;;
20480;SDS011;10399;50.754;3.366;2023-05-10T12:43:20;21.10;;;9.43;;
20480;SDS011;10399;50.754;3.366;2023-05-10T12:45:47;14.65;;;9.00;;
20480;SDS011;10399;50.754;3.366;2023-05-10T12:48:15;22.70;;;10.13;;
20480;SDS011;10399;50.754;3.366;2023-05-10T12:50:42;17.77;;;9.80;;
20480;SDS011;10399;50.754;3.366;2023-05-10T12:53:09;19.27;;;9.85;;
20480;SDS011;10399;50.754;3.366;2023-05-10T12:55:36;16.00;;;9.85;;
20480;SDS011;10399;50.754;3.366;2023-05-10T12:58:03;19.35;;;9.50;;
20480;SDS011;10399;50.754;3.366;2023-05-10T13:00:30;19.17;;;9.77;;
20480;SDS011;10399;50.754;3.366;2023-05-10T13:02:57;20.77;;;9.13;;
20480;SDS011;10399;50.754;3.366;2023-05-10T13:05:25;14.60;;;8.82;;
20480;SDS011;10399;50.754;3.366;2023-05-10T13:07:52;20.23;;;8.60;;
20480;SDS011;10399;50.754;3.366;2023-05-10T13:10:19;15.15;;;9.75;;
20480;SDS011;10399;50.754;3.366;2023-05-10T13:12:46;21.92;;;9.10;;
20480;SDS011;10399;50.754;3.366;2023-05-10T13:15:13;15.40;;;6.05;;
20480;SDS011;10399;50.754;3.366;2023-05-10T13:17:40;7.57;;;3.45;;
20480;SDS011;10399;50.754;3.366;2023-05-10T13:20:09;11.07;;;3.15;;
20480;SDS011;10399;50.754;3.366;2023-05-10T13:22:36;12.15;;;3.13;;
20480;SDS011;10399;50.754;3.366;2023-05-10T13:25:06;10.18;;;3.50;;
20480;SDS011;10399;50.754;3.366;2023-05-10T13:27:33;11.73;;;3.80;;
20480;SDS011;10399;50.754;3.366;2023-05-10T13:30:01;11.75;;;3.33;;
20480;SDS011;10399;50.754;3.366;2023-05-10T13:32:29;11.65;;;3.45;;
20480;SDS011;10399;50.754;3.366;2023-05-10T13:34:56;7.47;;;2.72;;
20480;SDS011;10399;50.754;3.366;2023-05-10T13:37:23;9.73;;;3.30;;
20480;SDS011;10399;50.754;3.366;2023-05-10T13:39:51;10.65;;;3.08;;
20480;SDS011;10399;50.754;3.366;2023-05-10T13:42:17;7.30;;;2.92;;
20480;SDS011;10399;50.754;3.366;2023-05-10T13:44:44;6.65;;;2.15;;
20480;SDS011;10399;50.754;3.366;2023-05-10T13:47:12;6.85;;;2.03;;
20480;SDS011;10399;50.754;3.366;2023-05-10T13:49:39;7.78;;;1.92;;
20480;SDS011;10399;50.754;3.366;2023-05-10T13:52:06;7.18;;;2.90;;
20480;SDS011;10399;50.754;3.366;2023-05-10T13:54:33;8.88;;;2.20;;
20480;SDS011;10399;50.754;3.366;2023-05-10T13:57:02;6.22;;;2.47;;
20480;SDS011;10399;50.754;3.366;2023-05-10T13:59:28;7.93;;;2.40;;
20480;SDS011;10399;50.754;3.366;2023-05-10T14:01:58;6.18;;;2.10;;
20480;SDS011;10399;50.754;3.366;2023-05-10T14:04:26;7.53;;;2.20;;
20480;SDS011;10399;50.754;3.366;2023-05-10T14:06:52;9.20;;;2.30;;
20480;SDS011;10399;50.754;3.366;2023-05-10T14:09:20;7.43;;;2.30;;
20480;SDS011;10399;50.754;3.366;2023-05-10T14:11:47;11.07;;;2.67;;
20480;SDS011;10399;50.754;3.366;2023-05-10T14:14:14;7.40;;;2.38;;
20480;SDS011;10399;50.754;3.366;2023-05-10T14:16:43;5.47;;;2.40;;
20480;SDS011;10399;50.754;3.366;2023-05-10T14:19:10;5.97;;;2.25;;
20480;SDS011;10399;50.754;3.366;2023-05-10T14:21:37;13.52;;;3.13;;
20480;SDS011;10399;50.754;3.366;2023-05-10T14:24:07;11.35;;;2.53;;
20480;SDS011;10399;50.754;3.366;2023-05-10T14:26:34;8.48;;;2.15;;
20480;SDS011;10399;50.754;3.366;2023-05-10T14:29:01;6.63;;;2.08;;
20480;SDS011;10399;50.754;3.366;2023-05-10T14:31:29;8.88;;;2.55;;
20480;SDS011;10399;50.754;3.366;2023-05-10T14:33:56;6.93;;;2.65;;
20480;SDS011;10399;50.754;3.366;2023-05-10T14:36:23;14.30;;;3.03;;
20480;SDS011;10399;50.754;3.366;2023-05-10T14:38:52;8.50;;;2.35;;
20480;SDS011;10399;50.754;3.366;2023-05-10T14:41:19;9.50;;;3.08;;
20480;SDS011;10399;50.754;3.366;2023-05-10T14:43:46;9.80;;;2.22;;
20480;SDS011;10399;50.754;3.366;2023-05-10T14:46:13;10.02;;;2.65;;
20480;SDS011;10399;50.754;3.366;2023-05-10T14:48:40;11.65;;;2.35;;
20480;SDS011;10399;50.754;3.366;2023-05-10T14:51:07;7.65;;;1.80;;
20480;SDS011;10399;50.754;3.366;2023-05-10T14:53:34;9.23;;;2.33;;
20480;SDS011;10399;50.754;3.366;2023-05-10T14:56:01;9.13;;;2.25;;
20480;SDS011;10399;50.754;3.366;2023-05-10T14:58:29;4.78;;;1.65;;
20480;SDS011;10399;50.754;3.366;2023-05-10T15:00:59;11.48;;;1.92;;
20480;SDS011;10399;50.754;3.366;2023-05-10T15:03:28;7.57;;;2.05;;
20480;SDS011;10399;50.754;3.366;2023-05-10T15:05:56;8.75;;;2.17;;
20480;SDS011;10399;50.754;3.366;2023-05-10T15:08:24;9.32;;;2.58;;
20480;SDS011;10399;50.754;3.366;2023-05-10T15:10:51;5.53;;;2.25;;
20480;SDS011;10399;50.754;3.366;2023-05-10T15:13:18;10.70;;;2.13;;
20480;SDS011;10399;50.754;3.366;2023-05-10T15:15:45;10.30;;;2.42;;
20480;SDS011;10399;50.754;3.366;2023-05-10T15:18:12;16.60;;;2.72;;
20480;SDS011;10399;50.754;3.366;2023-05-10T15:20:39;9.07;;;3.20;;